Terminal Aerodrome Forecast
Issued by NWS

Home | Current Version | Previous Version | Graphics & Text | Print | Product List | Glossary On
Versions: 1 2 3 4 5 6 7 8 9 10 11 12 13 14 15 16
000
FTUS43 KJKL 020500
TAFSME
TAF
KSME 020535Z 0206/0306 33003KT P6SM OVC100
     FM020800 00000KT 4SM BR BKN100
     FM020900 00000KT 1/2SM FG SCT001
     FM021300 36005KT P6SM SCT060
     FM021400 31003KT P6SM VCTS SCT060CB BKN100
     FM022000 00000KT P6SM SCT100
     FM030500 00000KT 4SM BR SCT050=

USA.gov is the U.S. government's official web portal to all federal, state and local government web resources and services.